Time,TemperatureF,DewpointF,PressureIn,WindDirection,WindDirectionDegrees,WindSpeedMPH,WindSpeedGustMPH,Humidity,HourlyPrecipIn,Conditions,Clouds,dailyrainin,SoftwareType,DateUTC
2013-05-10 00:00:00,57.2,53.7,30.01,WSW,248,1.3,1.3,88,0.00,,,0.00,WUHU216HW,2013-05-10 04:00:00,
2013-05-10 00:01:00,57.2,53.7,30.01,WSW,248,1.3,1.3,88,0.00,,,0.00,WUHU216HW,2013-05-10 04:01:00,
2013-05-10 00:06:00,57.2,53.1,30.01,WNW,293,0.0,1.3,86,0.00,,,0.00,WUHU216HW,2013-05-10 04:06:00,
2013-05-10 00:11:00,56.9,52.8,30.01,WNW,293,0.2,1.3,86,0.00,,,0.00,WUHU216HW,2013-05-10 04:11:00,
2013-05-10 00:16:00,56.5,52.4,30.01,WNW,293,0.0,0.4,86,0.00,,,0.00,WUHU216HW,2013-05-10 04:16:00,
2013-05-10 00:21:00,56.2,52.0,30.01,WNW,293,0.0,0.2,86,0.00,,,0.00,WUHU216HW,2013-05-10 04:21:00,
2013-05-10 00:26:00,56.2,52.7,30.02,WSW,248,0.2,0.4,88,0.00,,,0.00,WUHU216HW,2013-05-10 04:26:00,
2013-05-10 00:31:00,56.3,53.1,30.02,WSW,248,0.0,0.4,89,0.00,,,0.00,WUHU216HW,2013-05-10 04:31:00,
2013-05-10 00:36:00,56.3,53.1,30.02,WSW,248,0.2,0.9,89,0.00,,,0.00,WUHU216HW,2013-05-10 04:36:00,
2013-05-10 00:41:00,56.5,53.9,30.02,WSW,248,0.9,0.9,91,0.00,,,0.00,WUHU216HW,2013-05-10 04:41:00,
2013-05-10 00:46:00,56.5,53.9,30.02,WSW,248,0.7,1.3,91,0.00,,,0.00,WUHU216HW,2013-05-10 04:46:00,
2013-05-10 00:51:00,56.5,53.9,30.02,WSW,248,0.9,1.3,91,0.00,,,0.00,WUHU216HW,2013-05-10 04:51:00,
2013-05-10 00:56:00,56.5,53.9,30.02,SW,225,0.4,1.3,91,0.00,,,0.00,WUHU216HW,2013-05-10 04:56:00,
2013-05-10 01:01:00,56.3,53.5,30.02,SW,225,0.2,1.3,90,0.00,,,0.00,WUHU216HW,2013-05-10 05:01:00,
2013-05-10 01:06:00,56.2,53.3,30.02,SW,225,0.4,0.9,90,0.00,,,0.00,WUHU216HW,2013-05-10 05:06:00,
2013-05-10 01:11:00,56.2,52.9,30.02,WSW,248,0.4,1.1,89,0.00,,,0.00,WUHU216HW,2013-05-10 05:11:00,
2013-05-10 01:16:00,56.2,52.7,30.02,WNW,293,0.7,1.6,88,0.00,,,0.00,WUHU216HW,2013-05-10 05:16:00,
2013-05-10 01:21:00,56.0,52.7,30.02,WSW,248,0.4,1.8,89,0.00,,,0.00,WUHU216HW,2013-05-10 05:21:00,
2013-05-10 01:26:00,56.0,52.5,30.02,SSW,203,1.1,1.8,88,0.00,,,0.00,WUHU216HW,2013-05-10 05:26:00,
2013-05-10 01:31:00,55.8,52.3,30.02,West,270,1.8,2.0,88,0.00,,,0.00,WUHU216HW,2013-05-10 05:31:00,
2013-05-10 01:36:00,55.8,52.3,30.02,West,270,1.3,2.0,88,0.00,,,0.00,WUHU216HW,2013-05-10 05:36:00,
2013-05-10 01:41:00,56.0,52.5,30.02,West,270,1.1,1.8,88,0.00,,,0.00,WUHU216HW,2013-05-10 05:41:00,
2013-05-10 01:46:00,56.2,52.3,30.02,WSW,248,0.4,2.2,87,0.00,,,0.00,WUHU216HW,2013-05-10 05:46:00,
2013-05-10 01:51:00,56.2,52.0,30.02,WSW,248,0.0,2.2,86,0.00,,,0.00,WUHU216HW,2013-05-10 05:51:00,
2013-05-10 01:56:00,56.2,52.0,30.02,WSW,248,0.4,1.8,86,0.00,,,0.00,WUHU216HW,2013-05-10 05:56:00,
2013-05-10 02:01:00,56.0,51.9,30.02,SW,225,0.7,1.8,86,0.00,,,0.00,WUHU216HW,2013-05-10 06:01:00,
2013-05-10 02:06:00,56.0,51.9,30.02,SW,225,0.0,1.1,86,0.00,,,0.00,WUHU216HW,2013-05-10 06:06:00,
2013-05-10 02:11:00,55.8,51.7,30.02,SSW,203,0.0,1.1,86,0.00,,,0.00,WUHU216HW,2013-05-10 06:11:00,
2013-05-10 02:16:00,55.4,51.3,30.02,SSW,203,0.2,0.4,86,0.00,,,0.00,WUHU216HW,2013-05-10 06:16:00,
2013-05-10 02:21:00,55.4,51.3,30.02,SW,225,0.0,0.4,86,0.00,,,0.00,WUHU216HW,2013-05-10 06:21:00,
2013-05-10 02:26:00,55.3,51.1,30.01,South,180,0.0,0.4,86,0.00,,,0.00,WUHU216HW,2013-05-10 06:26:00,
2013-05-10 02:31:00,55.1,51.0,30.01,WSW,248,0.4,1.1,86,0.00,,,0.00,WUHU216HW,2013-05-10 06:31:00,
2013-05-10 02:36:00,55.1,51.2,30.02,SSW,203,0.9,1.1,87,0.00,,,0.00,WUHU216HW,2013-05-10 06:36:00,
2013-05-10 02:41:00,54.5,50.8,30.01,SSW,203,0.0,1.1,87,0.00,,,0.00,WUHU216HW,2013-05-10 06:41:00,
2013-05-10 02:46:00,54.5,51.3,30.01,SSW,203,0.4,0.4,89,0.00,,,0.00,WUHU216HW,2013-05-10 06:46:00,
2013-05-10 02:51:00,54.4,50.9,30.02,WSW,248,0.7,0.7,88,0.00,,,0.00,WUHU216HW,2013-05-10 06:51:00,
2013-05-10 02:56:00,54.4,50.9,30.02,SW,225,0.7,0.9,88,0.00,,,0.00,WUHU216HW,2013-05-10 06:56:00,
2013-05-10 03:01:00,54.5,51.0,30.02,WSW,248,0.4,0.9,88,0.00,,,0.00,WUHU216HW,2013-05-10 07:01:00,
2013-05-10 03:06:00,54.4,50.9,30.01,WSW,248,0.0,1.1,88,0.00,,,0.00,WUHU216HW,2013-05-10 07:06:00,
2013-05-10 03:11:00,54.4,50.9,30.01,WSW,248,0.0,1.1,88,0.00,,,0.00,WUHU216HW,2013-05-10 07:11:00,
2013-05-10 03:16:00,54.4,50.9,30.01,WSW,248,0.2,1.1,88,0.00,,,0.00,WUHU216HW,2013-05-10 07:16:00,
2013-05-10 03:21:00,54.4,50.9,30.01,SSW,203,0.2,1.1,88,0.00,,,0.00,WUHU216HW,2013-05-10 07:21:00,
2013-05-10 03:26:00,54.2,50.7,30.01,West,270,0.0,0.9,88,0.00,,,0.00,WUHU216HW,2013-05-10 07:26:00,
2013-05-10 03:31:00,54.2,50.7,30.01,WSW,248,0.4,1.1,88,0.00,,,0.00,WUHU216HW,2013-05-10 07:31:00,
2013-05-10 03:36:00,54.0,50.9,30.02,West,270,0.9,1.1,89,0.00,,,0.00,WUHU216HW,2013-05-10 07:36:00,
2013-05-10 03:41:00,53.8,50.7,30.02,West,270,0.0,1.1,89,0.00,,,0.00,WUHU216HW,2013-05-10 07:41:00,
2013-05-10 03:46:00,53.6,50.1,30.01,West,270,0.0,1.1,88,0.00,,,0.00,WUHU216HW,2013-05-10 07:46:00,
2013-05-10 03:51:00,53.5,50.0,30.02,West,270,0.2,0.2,88,0.00,,,0.00,WUHU216HW,2013-05-10 07:51:00,
2013-05-10 03:56:00,53.6,50.5,30.02,West,270,0.0,0.4,89,0.00,,,0.00,WUHU216HW,2013-05-10 07:56:00,
2013-05-10 04:01:00,53.3,50.1,30.02,West,270,0.0,0.4,89,0.00,,,0.00,WUHU216HW,2013-05-10 08:01:00,
2013-05-10 04:06:00,53.3,49.8,30.01,West,270,0.0,0.2,88,0.00,,,0.00,WUHU216HW,2013-05-10 08:06:00,
2013-05-10 04:11:00,53.3,49.8,30.01,West,270,0.0,0.4,88,0.00,,,0.00,WUHU216HW,2013-05-10 08:11:00,
2013-05-10 04:16:00,53.3,50.1,30.01,West,270,0.0,0.4,89,0.00,,,0.00,WUHU216HW,2013-05-10 08:16:00,
2013-05-10 04:21:00,53.1,50.2,30.01,WSW,248,0.0,0.2,90,0.00,,,0.00,WUHU216HW,2013-05-10 08:21:00,
2013-05-10 04:26:00,52.9,49.8,30.01,WSW,248,0.0,0.2,89,0.00,,,0.00,WUHU216HW,2013-05-10 08:26:00,
2013-05-10 04:31:00,52.7,49.6,30.01,WSW,248,0.0,0.0,89,0.00,,,0.00,WUHU216HW,2013-05-10 08:31:00,
2013-05-10 04:36:00,52.6,49.4,30.01,WSW,248,0.0,0.0,89,0.00,,,0.00,WUHU216HW,2013-05-10 08:36:00,
2013-05-10 04:41:00,52.6,49.1,30.01,WSW,248,0.0,0.0,88,0.00,,,0.00,WUHU216HW,2013-05-10 08:41:00,
2013-05-10 04:46:00,52.4,48.9,30.01,WSW,248,0.0,0.0,88,0.00,,,0.00,WUHU216HW,2013-05-10 08:46:00,
2013-05-10 04:51:00,52.2,49.1,30.01,WSW,248,0.0,0.0,89,0.00,,,0.00,WUHU216HW,2013-05-10 08:51:00,
2013-05-10 04:56:00,52.4,49.8,30.01,SW,225,0.0,1.1,91,0.00,,,0.00,WUHU216HW,2013-05-10 08:56:00,
2013-05-10 05:01:00,52.4,49.2,30.01,SW,225,0.0,1.1,89,0.00,,,0.00,WUHU216HW,2013-05-10 09:01:00,
2013-05-10 05:06:00,52.2,49.1,30.02,SW,225,0.0,0.0,89,0.00,,,0.00,WUHU216HW,2013-05-10 09:06:00,
2013-05-10 05:11:00,51.8,48.7,30.02,SW,225,0.0,0.0,89,0.00,,,0.00,WUHU216HW,2013-05-10 09:11:00,
2013-05-10 05:16:00,51.7,48.5,30.01,SW,225,0.0,0.0,89,0.00,,,0.00,WUHU216HW,2013-05-10 09:16:00,
2013-05-10 05:21:00,51.7,48.5,30.01,SW,225,0.0,0.0,89,0.00,,,0.00,WUHU216HW,2013-05-10 09:21:00,
2013-05-10 05:26:00,51.5,48.3,30.01,SW,225,0.0,0.0,89,0.00,,,0.00,WUHU216HW,2013-05-10 09:26:00,
2013-05-10 05:31:00,51.5,48.3,30.01,SSW,203,0.0,0.2,89,0.00,,,0.00,WUHU216HW,2013-05-10 09:31:00,
2013-05-10 05:36:00,51.5,48.3,30.01,SW,225,0.0,0.4,89,0.00,,,0.00,WUHU216HW,2013-05-10 09:36:00,
2013-05-10 05:41:00,51.5,48.3,30.01,SW,225,0.2,0.4,89,0.00,,,0.00,WUHU216HW,2013-05-10 09:41:00,
2013-05-10 05:46:00,51.1,48.0,30.01,SW,225,0.0,0.4,89,0.00,,,0.00,WUHU216HW,2013-05-10 09:46:00,
2013-05-10 05:51:00,51.1,48.0,30.01,SW,225,0.0,0.4,89,0.00,,,0.00,WUHU216HW,2013-05-10 09:51:00,
2013-05-10 05:56:00,51.3,48.4,30.01,WSW,248,0.2,0.9,90,0.00,,,0.00,WUHU216HW,2013-05-10 09:56:00,
2013-05-10 06:01:00,51.5,48.3,30.01,WSW,248,0.0,0.9,89,0.00,,,0.00,WUHU216HW,2013-05-10 10:01:00,
2013-05-10 06:06:00,51.5,48.6,30.01,WSW,248,0.0,0.2,90,0.00,,,0.00,WUHU216HW,2013-05-10 10:06:00,
2013-05-10 06:11:00,51.5,48.3,30.01,SW,225,0.0,0.0,89,0.00,,,0.00,WUHU216HW,2013-05-10 10:11:00,
2013-05-10 06:15:00,51.8,49.2,30.01,WSW,248,0.2,0.7,91,0.00,,,0.00,WUHU216HW,2013-05-10 10:15:00,
2013-05-10 06:20:00,51.8,49.2,30.01,WSW,248,0.4,0.7,91,0.00,,,0.00,WUHU216HW,2013-05-10 10:20:00,
2013-05-10 06:25:00,52.2,49.9,30.01,WSW,248,0.0,0.7,92,0.00,,,0.00,WUHU216HW,2013-05-10 10:25:00,
2013-05-10 06:30:00,52.6,50.2,30.01,SW,225,0.2,0.9,92,0.00,,,0.00,WUHU216HW,2013-05-10 10:30:00,
2013-05-10 06:35:00,52.6,50.2,30.01,SW,225,0.0,0.9,92,0.00,,,0.00,WUHU216HW,2013-05-10 10:35:00,
2013-05-10 06:40:00,52.7,50.4,30.02,SSW,203,0.7,0.7,92,0.00,,,0.00,WUHU216HW,2013-05-10 10:40:00,
2013-05-10 06:45:00,52.7,50.4,30.02,SSW,203,0.4,1.1,92,0.00,,,0.00,WUHU216HW,2013-05-10 10:45:00,
2013-05-10 06:50:00,52.9,50.6,30.01,SW,225,0.0,1.1,92,0.00,,,0.00,WUHU216HW,2013-05-10 10:50:00,
2013-05-10 06:55:00,53.3,50.9,30.01,WSW,248,0.9,0.9,92,0.00,,,0.00,WUHU216HW,2013-05-10 10:55:00,
2013-05-10 07:00:00,53.6,51.3,30.01,SSW,203,0.4,1.1,92,0.00,,,0.00,WUHU216HW,2013-05-10 11:00:00,
2013-05-10 07:05:00,54.0,51.4,30.01,South,180,0.2,1.1,91,0.00,,,0.00,WUHU216HW,2013-05-10 11:05:00,
2013-05-10 07:10:00,54.5,51.7,30.01,SW,225,0.7,0.9,90,0.00,,,0.00,WUHU216HW,2013-05-10 11:10:00,
2013-05-10 07:15:00,55.1,51.8,30.02,SSW,203,1.1,1.3,89,0.00,,,0.00,WUHU216HW,2013-05-10 11:15:00,
2013-05-10 07:20:00,55.6,52.4,30.01,West,270,1.6,1.6,89,0.00,,,0.00,WUHU216HW,2013-05-10 11:20:00,
2013-05-10 07:25:00,56.3,52.8,30.01,WSW,248,1.1,1.6,88,0.00,,,0.00,WUHU216HW,2013-05-10 11:25:00,
2013-05-10 07:30:00,56.9,52.8,30.02,WSW,248,1.3,1.8,86,0.00,,,0.00,WUHU216HW,2013-05-10 11:30:00,
2013-05-10 07:35:00,57.2,52.7,30.02,West,270,1.8,2.2,85,0.00,,,0.00,WUHU216HW,2013-05-10 11:35:00,
2013-05-10 07:40:00,58.0,53.1,30.02,SW,225,1.1,2.2,84,0.00,,,0.00,WUHU216HW,2013-05-10 11:40:00,
2013-05-10 07:45:00,58.5,53.4,30.01,South,180,0.7,2.2,83,0.00,,,0.00,WUHU216HW,2013-05-10 11:45:00,
2013-05-10 07:50:00,58.9,53.1,30.02,SW,225,2.2,2.9,81,0.00,,,0.00,WUHU216HW,2013-05-10 11:50:00,
2013-05-10 07:55:00,59.2,53.7,30.02,WSW,248,1.3,2.9,82,0.00,,,0.00,WUHU216HW,2013-05-10 11:55:00,
2013-05-10 08:00:00,59.0,53.3,30.02,SW,225,2.2,3.1,81,0.00,,,0.00,WUHU216HW,2013-05-10 12:00:00,
2013-05-10 08:05:00,59.0,53.3,30.02,SSW,203,1.6,3.4,81,0.00,,,0.00,WUHU216HW,2013-05-10 12:05:00,
2013-05-10 08:10:00,59.4,53.7,30.02,West,270,1.8,3.4,81,0.00,,,0.00,WUHU216HW,2013-05-10 12:10:00,
2013-05-10 08:15:00,59.8,53.6,30.02,SW,225,3.1,3.4,80,0.00,,,0.00,WUHU216HW,2013-05-10 12:15:00,
2013-05-10 08:20:00,60.3,54.6,30.02,South,180,1.1,3.4,81,0.00,,,0.00,WUHU216HW,2013-05-10 12:20:00,
2013-05-10 08:25:00,60.8,54.7,30.02,South,180,0.4,3.1,80,0.00,,,0.00,WUHU216HW,2013-05-10 12:25:00,
2013-05-10 08:30:00,61.2,54.4,30.02,SSE,158,2.0,2.0,78,0.00,,,0.00,WUHU216HW,2013-05-10 12:30:00,
2013-05-10 08:35:00,61.9,55.4,30.02,SSE,158,0.2,2.2,79,0.00,,,0.00,WUHU216HW,2013-05-10 12:35:00,
2013-05-10 08:40:00,62.3,54.2,30.02,SSW,203,2.2,3.4,75,0.00,,,0.00,WUHU216HW,2013-05-10 12:40:00,
2013-05-10 08:45:00,63.0,55.3,30.02,SSW,203,0.4,3.4,76,0.00,,,0.00,WUHU216HW,2013-05-10 12:45:00,
2013-05-10 08:50:00,63.4,55.3,30.02,SW,225,0.4,2.2,75,0.00,,,0.00,WUHU216HW,2013-05-10 12:50:00,
2013-05-10 08:55:00,63.9,55.4,30.02,SW,225,1.1,2.0,74,0.00,,,0.00,WUHU216HW,2013-05-10 12:55:00,
2013-05-10 09:00:00,64.4,56.7,30.02,SSE,158,0.7,2.9,76,0.00,,,0.00,WUHU216HW,2013-05-10 13:00:00,
2013-05-10 09:05:00,64.8,56.0,30.02,SW,225,0.7,2.9,73,0.00,,,0.00,WUHU216HW,2013-05-10 13:05:00,
2013-05-10 09:10:00,64.6,56.2,30.02,WSW,248,0.2,2.2,74,0.00,,,0.00,WUHU216HW,2013-05-10 13:10:00,
2013-05-10 09:15:00,64.8,56.4,30.02,SSE,158,0.7,2.2,74,0.00,,,0.00,WUHU216HW,2013-05-10 13:15:00,
2013-05-10 09:20:00,65.0,56.2,30.02,West,270,2.0,2.0,73,0.00,,,0.00,WUHU216HW,2013-05-10 13:20:00,
2013-05-10 09:25:00,65.3,56.8,30.02,West,270,0.9,2.2,74,0.00,,,0.00,WUHU216HW,2013-05-10 13:25:00,
2013-05-10 09:30:00,65.5,57.0,30.02,WSW,248,1.1,2.2,74,0.00,,,0.00,WUHU216HW,2013-05-10 13:30:00,
2013-05-10 09:35:00,65.9,57.0,30.02,SW,225,0.0,2.5,73,0.00,,,0.00,WUHU216HW,2013-05-10 13:35:00,
2013-05-10 09:40:00,66.4,57.1,30.02,West,270,0.7,2.5,72,0.00,,,0.00,WUHU216HW,2013-05-10 13:40:00,
2013-05-10 09:45:00,66.8,57.4,30.02,NE,45,0.4,1.8,72,0.00,,,0.00,WUHU216HW,2013-05-10 13:45:00,
2013-05-10 09:50:00,67.5,57.8,30.02,ENE,68,0.0,1.1,71,0.00,,,0.00,WUHU216HW,2013-05-10 13:50:00,
2013-05-10 09:55:00,68.6,58.9,30.02,NW,315,0.9,1.1,71,0.00,,,0.00,WUHU216HW,2013-05-10 13:55:00,
2013-05-10 10:00:00,68.8,57.3,30.01,West,270,1.8,3.6,67,0.00,,,0.00,WUHU216HW,2013-05-10 14:00:00,
2013-05-10 10:05:00,68.9,58.8,30.01,WSW,248,0.4,3.6,70,0.00,,,0.00,WUHU216HW,2013-05-10 14:05:00,
2013-05-10 10:10:00,68.9,58.3,30.01,NW,315,2.0,3.1,69,0.00,,,0.00,WUHU216HW,2013-05-10 14:10:00,
2013-05-10 10:15:00,69.5,58.4,30.01,West,270,2.7,3.4,68,0.00,,,0.00,WUHU216HW,2013-05-10 14:15:00,
2013-05-10 10:20:00,70.6,57.3,30.01,SW,225,2.0,3.6,63,0.00,,,0.00,WUHU216HW,2013-05-10 14:20:00,
2013-05-10 10:25:00,71.1,58.7,30.01,NW,315,2.5,3.6,65,0.00,,,0.00,WUHU216HW,2013-05-10 14:25:00,
2013-05-10 10:30:00,72.0,58.2,30.01,West,270,3.4,4.9,62,0.00,,,0.00,WUHU216HW,2013-05-10 14:30:00,
2013-05-10 10:35:00,72.7,56.0,30.01,WSW,248,3.8,7.6,56,0.00,,,0.00,WUHU216HW,2013-05-10 14:35:00,
2013-05-10 10:40:00,73.3,56.0,30.01,SW,225,4.9,7.6,55,0.00,,,0.00,WUHU216HW,2013-05-10 14:40:00,
2013-05-10 10:45:00,73.8,56.5,30.01,SW,225,3.4,6.0,55,0.00,,,0.00,WUHU216HW,2013-05-10 14:45:00,
2013-05-10 10:50:00,74.2,56.9,30.01,SW,225,3.1,6.3,55,0.00,,,0.00,WUHU216HW,2013-05-10 14:50:00,
2013-05-10 10:55:00,74.7,56.4,30.01,SSW,203,4.0,6.3,53,0.00,,,0.00,WUHU216HW,2013-05-10 14:55:00,
2013-05-10 11:00:00,75.1,55.8,30.00,SSW,203,8.3,8.3,51,0.00,,,0.00,WUHU216HW,2013-05-10 15:00:00,
2013-05-10 11:05:00,75.2,56.4,30.00,West,270,4.7,9.6,52,0.00,,,0.00,WUHU216HW,2013-05-10 15:05:00,
2013-05-10 11:10:00,75.6,56.8,30.00,West,270,5.1,9.6,52,0.00,,,0.00,WUHU216HW,2013-05-10 15:10:00,
2013-05-10 11:15:00,75.8,57.0,30.00,West,270,3.4,7.8,52,0.00,,,0.00,WUHU216HW,2013-05-10 15:15:00,
2013-05-10 11:20:00,76.3,56.9,30.00,SSW,203,2.7,6.5,51,0.00,,,0.00,WUHU216HW,2013-05-10 15:20:00,
2013-05-10 11:25:00,76.9,57.9,30.00,WSW,248,4.0,5.1,52,0.00,,,0.00,WUHU216HW,2013-05-10 15:25:00,
2013-05-10 11:30:00,77.6,58.6,30.00,WSW,248,1.8,4.9,52,0.00,,,0.00,WUHU216HW,2013-05-10 15:30:00,
2013-05-10 11:35:00,78.1,58.1,30.00,SW,225,1.1,4.9,50,0.00,,,0.00,WUHU216HW,2013-05-10 15:35:00,
2013-05-10 11:40:00,78.3,57.0,29.99,SSW,203,4.5,4.9,48,0.00,,,0.00,WUHU216HW,2013-05-10 15:40:00,
2013-05-10 11:45:00,78.1,57.4,29.99,NW,315,2.7,5.4,49,0.00,,,0.00,WUHU216HW,2013-05-10 15:45:00,
2013-05-10 11:50:00,78.7,59.1,29.99,NNW,338,0.7,5.4,51,0.00,,,0.00,WUHU216HW,2013-05-10 15:50:00,
2013-05-10 11:55:00,79.6,58.2,29.99,SSW,203,3.4,3.8,48,0.00,,,0.00,WUHU216HW,2013-05-10 15:55:00,
2013-05-10 12:00:00,80.1,56.8,29.99,SSE,158,4.0,4.0,45,0.00,,,0.00,WUHU216HW,2013-05-10 16:00:00,
2013-05-10 12:05:00,80.1,56.2,29.99,SSW,203,2.7,4.7,44,0.00,,,0.00,WUHU216HW,2013-05-10 16:05:00,
2013-05-10 12:10:00,80.3,56.4,29.98,NNW,338,2.7,5.1,44,0.00,,,0.00,WUHU216HW,2013-05-10 16:10:00,
2013-05-10 12:15:00,80.6,56.6,29.98,SW,225,1.8,5.1,44,0.00,,,0.00,WUHU216HW,2013-05-10 16:15:00,
2013-05-10 12:20:00,81.0,57.6,29.98,SW,225,4.3,5.4,45,0.00,,,0.00,WUHU216HW,2013-05-10 16:20:00,
2013-05-10 12:25:00,81.4,56.7,29.98,SE,135,1.6,5.8,43,0.00,,,0.00,WUHU216HW,2013-05-10 16:25:00,
2013-05-10 12:30:00,81.7,55.8,29.97,ESE,113,2.2,5.8,41,0.00,,,0.00,WUHU216HW,2013-05-10 16:30:00,
2013-05-10 12:35:00,81.4,57.9,29.97,SW,225,2.0,6.5,45,0.00,,,0.00,WUHU216HW,2013-05-10 16:35:00,
2013-05-10 12:40:00,81.4,55.4,29.97,ESE,113,2.5,6.5,41,0.00,,,0.00,WUHU216HW,2013-05-10 16:40:00,
2013-05-10 12:45:00,81.5,56.8,29.97,NW,315,4.0,6.0,43,0.00,,,0.00,WUHU216HW,2013-05-10 16:45:00,
2013-05-10 12:50:00,81.9,55.9,29.97,WSW,248,3.4,6.9,41,0.00,,,0.00,WUHU216HW,2013-05-10 16:50:00,
2013-05-10 12:55:00,81.7,54.4,29.96,SSW,203,3.4,6.9,39,0.00,,,0.00,WUHU216HW,2013-05-10 16:55:00,
2013-05-10 13:00:00,81.7,57.6,29.96,WNW,293,0.9,6.9,44,0.00,,,0.00,WUHU216HW,2013-05-10 17:00:00,
2013-05-10 13:05:00,82.4,55.8,29.96,SW,225,4.0,6.7,40,0.00,,,0.00,WUHU216HW,2013-05-10 17:05:00,
2013-05-10 13:10:00,82.4,56.4,29.96,SE,135,4.0,6.7,41,0.00,,,0.00,WUHU216HW,2013-05-10 17:10:00,
2013-05-10 13:15:00,81.9,55.4,29.96,SE,135,4.5,6.7,40,0.00,,,0.00,WUHU216HW,2013-05-10 17:15:00,
2013-05-10 13:20:00,81.7,56.3,29.96,NNW,338,3.6,6.3,42,0.00,,,0.00,WUHU216HW,2013-05-10 17:20:00,
2013-05-10 13:25:00,81.7,56.3,29.96,West,270,7.6,8.5,42,0.00,,,0.00,WUHU216HW,2013-05-10 17:25:00,
2013-05-10 13:30:00,82.3,56.9,29.96,WNW,293,5.6,8.5,42,0.00,,,0.00,WUHU216HW,2013-05-10 17:30:00,
2013-05-10 13:35:00,82.6,56.0,29.96,SSE,158,4.5,8.7,40,0.00,,,0.00,WUHU216HW,2013-05-10 17:35:00,
2013-05-10 13:40:00,82.4,55.0,29.95,West,270,5.1,8.7,39,0.00,,,0.00,WUHU216HW,2013-05-10 17:40:00,
2013-05-10 13:45:00,83.2,55.6,29.95,SW,225,4.9,7.6,39,0.00,,,0.00,WUHU216HW,2013-05-10 17:45:00,
2013-05-10 13:50:00,83.2,54.9,29.95,SSW,203,5.4,8.9,38,0.00,,,0.00,WUHU216HW,2013-05-10 17:50:00,
2013-05-10 13:55:00,82.8,54.5,29.95,WNW,293,4.9,8.9,38,0.00,,,0.00,WUHU216HW,2013-05-10 17:55:00,
2013-05-10 14:00:00,83.0,53.9,29.94,South,180,7.6,8.3,37,0.00,,,0.00,WUHU216HW,2013-05-10 18:00:00,
2013-05-10 14:05:00,83.5,54.4,29.94,WSW,248,4.3,8.9,37,0.00,,,0.00,WUHU216HW,2013-05-10 18:05:00,
2013-05-10 14:10:00,83.5,56.0,29.94,West,270,3.4,8.9,39,0.00,,,0.00,WUHU216HW,2013-05-10 18:10:00,
2013-05-10 14:15:00,84.1,56.4,29.93,East,90,2.5,7.4,39,0.00,,,0.00,WUHU216HW,2013-05-10 18:15:00,
2013-05-10 14:20:00,84.6,54.5,29.93,SSW,203,6.3,9.6,36,0.00,,,0.00,WUHU216HW,2013-05-10 18:20:00,
2013-05-10 14:25:00,84.4,58.2,29.93,SSW,203,2.2,9.6,41,0.00,,,0.00,WUHU216HW,2013-05-10 18:25:00,
2013-05-10 14:30:00,84.6,57.8,29.93,SE,135,4.7,4.7,40,0.00,,,0.00,WUHU216HW,2013-05-10 18:30:00,
2013-05-10 14:35:00,85.0,58.1,29.92,ENE,68,5.1,6.9,40,0.00,,,0.00,WUHU216HW,2013-05-10 18:35:00,
2013-05-10 14:40:00,83.9,56.4,29.92,SSE,158,4.7,6.9,39,0.00,,,0.00,WUHU216HW,2013-05-10 18:40:00,
2013-05-10 14:45:00,83.2,57.1,29.92,South,180,1.3,6.3,41,0.00,,,0.00,WUHU216HW,2013-05-10 18:45:00,
2013-05-10 14:50:00,82.4,57.6,29.92,SE,135,4.7,6.9,43,0.00,,,0.00,WUHU216HW,2013-05-10 18:50:00,
2013-05-10 14:55:00,82.1,58.0,29.91,SE,135,2.5,6.9,44,0.00,,,0.00,WUHU216HW,2013-05-10 18:55:00,
2013-05-10 15:00:00,82.8,58.6,29.91,SSE,158,1.6,6.7,44,0.00,,,0.00,WUHU216HW,2013-05-10 19:00:00,
2013-05-10 15:05:00,83.5,58.7,29.91,SE,135,4.0,4.9,43,0.00,,,0.00,WUHU216HW,2013-05-10 19:05:00,
2013-05-10 15:10:00,83.5,57.4,29.91,South,180,4.0,6.0,41,0.00,,,0.00,WUHU216HW,2013-05-10 19:10:00,
2013-05-10 15:15:00,83.2,57.1,29.91,SW,225,6.3,6.3,41,0.00,,,0.00,WUHU216HW,2013-05-10 19:15:00,
2013-05-10 15:20:00,82.8,57.3,29.91,SSW,203,4.9,6.9,42,0.00,,,0.00,WUHU216HW,2013-05-10 19:20:00,
2013-05-10 15:25:00,82.1,56.1,29.91,SSE,158,5.1,6.9,41,0.00,,,0.00,WUHU216HW,2013-05-10 19:25:00,
2013-05-10 15:30:00,81.5,57.4,29.91,SSE,158,1.6,6.0,44,0.00,,,0.00,WUHU216HW,2013-05-10 19:30:00,
2013-05-10 15:35:00,81.0,57.0,29.90,SW,225,0.9,5.6,44,0.00,,,0.00,WUHU216HW,2013-05-10 19:35:00,
2013-05-10 15:40:00,80.6,56.0,29.91,SSE,158,3.1,4.7,43,0.00,,,0.00,WUHU216HW,2013-05-10 19:40:00,
2013-05-10 15:45:00,80.3,56.9,29.90,South,180,3.4,6.9,45,0.00,,,0.00,WUHU216HW,2013-05-10 19:45:00,
2013-05-10 15:50:00,80.3,59.4,29.90,South,180,1.1,6.9,49,0.01,,,0.01,WUHU216HW,2013-05-10 19:50:00,
2013-05-10 15:55:00,79.7,60.0,29.90,SW,225,2.0,4.7,51,0.02,,,0.02,WUHU216HW,2013-05-10 19:55:00,
2013-05-10 16:00:00,78.5,61.5,29.89,ESE,113,1.1,3.4,56,0.03,,,0.03,WUHU216HW,2013-05-10 20:00:00,
2013-05-10 16:05:00,77.2,61.7,29.89,ENE,68,2.0,3.4,59,0.03,,,0.03,WUHU216HW,2013-05-10 20:05:00,
2013-05-10 16:10:00,76.9,60.9,29.89,ESE,113,3.4,3.4,58,0.03,,,0.03,WUHU216HW,2013-05-10 20:10:00,
2013-05-10 16:15:00,77.0,61.6,29.89,SE,135,1.6,3.4,59,0.03,,,0.03,WUHU216HW,2013-05-10 20:15:00,
2013-05-10 16:20:00,77.2,61.7,29.89,SSE,158,0.2,2.5,59,0.03,,,0.03,WUHU216HW,2013-05-10 20:20:00,
2013-05-10 16:25:00,77.8,60.8,29.89,SSE,158,1.8,2.7,56,0.03,,,0.03,WUHU216HW,2013-05-10 20:25:00,
2013-05-10 16:30:00,78.5,62.0,29.89,SE,135,1.8,2.7,57,0.03,,,0.03,WUHU216HW,2013-05-10 20:30:00,
2013-05-10 16:35:00,78.7,60.6,29.89,SSW,203,2.5,3.6,54,0.03,,,0.03,WUHU216HW,2013-05-10 20:35:00,
2013-05-10 16:40:00,78.8,59.8,29.89,SE,135,2.0,4.0,52,0.03,,,0.03,WUHU216HW,2013-05-10 20:40:00,
2013-05-10 16:45:00,78.8,59.2,29.89,SW,225,2.5,4.7,51,0.03,,,0.03,WUHU216HW,2013-05-10 20:45:00,
2013-05-10 16:50:00,79.0,58.9,29.89,SSE,158,1.8,5.4,50,0.02,,,0.03,WUHU216HW,2013-05-10 20:50:00,
2013-05-10 16:55:00,79.2,59.5,29.89,SE,135,1.6,5.4,51,0.00,,,0.03,WUHU216HW,2013-05-10 20:55:00,
2013-05-10 17:00:00,79.2,58.4,29.89,South,180,1.3,5.1,49,0.00,,,0.03,WUHU216HW,2013-05-10 21:00:00,
2013-05-10 17:05:00,79.4,58.0,29.89,SW,225,2.7,5.1,48,0.00,,,0.03,WUHU216HW,2013-05-10 21:05:00,
2013-05-10 17:10:00,79.6,58.2,29.89,SSE,158,3.1,6.3,48,0.00,,,0.03,WUHU216HW,2013-05-10 21:10:00,
2013-05-10 17:15:00,79.6,58.7,29.89,SE,135,0.4,6.3,49,0.00,,,0.03,WUHU216HW,2013-05-10 21:15:00,
2013-05-10 17:20:00,79.2,57.8,29.89,South,180,1.1,4.9,48,0.00,,,0.03,WUHU216HW,2013-05-10 21:20:00,
2013-05-10 17:25:00,79.2,57.2,29.89,SW,225,1.6,4.9,47,0.00,,,0.03,WUHU216HW,2013-05-10 21:25:00,
2013-05-10 17:30:00,79.0,57.6,29.89,South,180,1.6,4.9,48,0.00,,,0.03,WUHU216HW,2013-05-10 21:30:00,
2013-05-10 17:35:00,78.8,57.4,29.89,South,180,1.1,5.1,48,0.00,,,0.03,WUHU216HW,2013-05-10 21:35:00,
2013-05-10 17:40:00,78.8,57.4,29.88,SSE,158,1.8,5.1,48,0.00,,,0.03,WUHU216HW,2013-05-10 21:40:00,
2013-05-10 17:45:00,78.7,57.3,29.88,West,270,1.8,2.9,48,0.00,,,0.03,WUHU216HW,2013-05-10 21:45:00,
2013-05-10 17:50:00,78.7,57.9,29.88,WSW,248,1.8,2.9,49,0.00,,,0.03,WUHU216HW,2013-05-10 21:50:00,
2013-05-10 17:55:00,78.5,58.9,29.88,West,270,1.1,2.5,51,0.00,,,0.03,WUHU216HW,2013-05-10 21:55:00,
2013-05-10 17:58:00,78.3,59.2,29.87,NNW,338,0.2,2.2,52,0.00,,,0.03,WUHU216HW,2013-05-10 21:58:00,
2013-05-10 18:03:00,78.3,59.8,29.87,North,0,2.0,3.8,53,0.00,,,0.03,WUHU216HW,2013-05-10 22:03:00,
2013-05-10 18:08:00,78.1,59.6,29.86,NNE,23,1.3,3.8,53,0.00,,,0.03,WUHU216HW,2013-05-10 22:08:00,
2013-05-10 18:13:00,77.9,60.0,29.86,ENE,68,1.1,3.6,54,0.00,,,0.03,WUHU216HW,2013-05-10 22:13:00,
2013-05-10 18:18:00,77.8,60.3,29.86,NE,45,0.4,3.4,55,0.00,,,0.03,WUHU216HW,2013-05-10 22:18:00,
2013-05-10 18:23:00,77.9,60.0,29.86,NE,45,0.7,3.8,54,0.00,,,0.03,WUHU216HW,2013-05-10 22:23:00,
2013-05-10 18:28:00,77.8,59.8,29.86,North,0,0.9,3.8,54,0.00,,,0.03,WUHU216HW,2013-05-10 22:28:00,
2013-05-10 18:33:00,77.8,59.8,29.86,NE,45,0.9,2.5,54,0.00,,,0.03,WUHU216HW,2013-05-10 22:33:00,
2013-05-10 18:38:00,77.4,61.5,29.86,ENE,68,2.5,2.5,58,0.00,,,0.03,WUHU216HW,2013-05-10 22:38:00,
2013-05-10 18:43:00,76.3,60.5,29.86,NE,45,2.5,2.5,58,0.00,,,0.03,WUHU216HW,2013-05-10 22:43:00,
2013-05-10 18:48:00,75.4,60.7,29.86,NE,45,4.0,4.7,60,0.00,,,0.03,WUHU216HW,2013-05-10 22:48:00,
2013-05-10 18:53:00,74.5,60.2,29.85,NNE,23,1.8,4.7,61,0.00,,,0.03,WUHU216HW,2013-05-10 22:53:00,
2013-05-10 18:58:00,74.3,60.5,29.86,North,0,2.2,4.0,62,0.00,,,0.03,WUHU216HW,2013-05-10 22:58:00,
2013-05-10 19:03:00,73.4,61.8,29.87,North,0,4.0,8.1,67,0.02,,,0.05,WUHU216HW,2013-05-10 23:03:00,
2013-05-10 19:08:00,70.9,61.4,29.89,SW,225,3.4,16.1,72,0.09,,,0.12,WUHU216HW,2013-05-10 23:08:00,
2013-05-10 19:13:00,68.4,61.3,29.94,West,270,11.4,21.5,78,0.19,,,0.22,WUHU216HW,2013-05-10 23:13:00,
2013-05-10 19:18:00,66.4,60.8,29.94,West,270,13.9,21.5,82,0.35,,,0.39,WUHU216HW,2013-05-10 23:18:00,
2013-05-10 19:23:00,65.2,59.9,29.92,West,270,1.8,15.9,83,0.53,,,0.56,WUHU216HW,2013-05-10 23:23:00,
2013-05-10 19:28:00,65.0,59.3,29.93,West,270,3.8,13.9,82,0.54,,,0.57,WUHU216HW,2013-05-10 23:28:00,
2013-05-10 19:33:00,64.8,59.9,29.94,NE,45,4.0,6.3,84,0.54,,,0.57,WUHU216HW,2013-05-10 23:33:00,
2013-05-10 19:38:00,64.6,59.7,29.94,West,270,2.7,5.6,84,0.55,,,0.58,WUHU216HW,2013-05-10 23:38:00,
2013-05-10 19:43:00,64.4,59.1,29.92,North,0,1.3,5.6,83,0.56,,,0.59,WUHU216HW,2013-05-10 23:43:00,
2013-05-10 19:48:00,64.3,59.0,29.93,West,270,1.6,3.1,83,0.57,,,0.60,WUHU216HW,2013-05-10 23:48:00,
2013-05-10 19:53:00,64.3,59.3,29.93,WNW,293,2.7,2.7,84,0.57,,,0.60,WUHU216HW,2013-05-10 23:53:00,
2013-05-10 19:58:00,64.1,59.5,29.94,West,270,3.1,3.1,85,0.58,,,0.61,WUHU216HW,2013-05-10 23:58:00,
2013-05-10 20:03:00,64.1,60.2,29.94,WNW,293,2.5,5.1,87,0.56,,,0.61,WUHU216HW,2013-05-11 00:03:00,
2013-05-10 20:08:00,64.1,60.2,29.95,South,180,1.1,5.1,87,0.43,,,0.61,WUHU216HW,2013-05-11 00:08:00,
2013-05-10 20:13:00,64.1,60.5,29.95,SSE,158,3.1,4.5,88,0.28,,,0.62,WUHU216HW,2013-05-11 00:13:00,
2013-05-10 20:18:00,63.9,60.7,29.95,WSW,248,1.3,4.0,89,0.18,,,0.63,WUHU216HW,2013-05-11 00:18:00,
2013-05-10 20:23:00,63.7,59.9,29.95,NW,315,0.4,3.6,87,0.09,,,0.65,WUHU216HW,2013-05-11 00:23:00,
2013-05-10 20:28:00,63.7,59.5,29.94,NW,315,0.0,2.5,86,0.10,,,0.67,WUHU216HW,2013-05-11 00:28:00,
2013-05-10 20:33:00,63.7,59.5,29.94,North,0,1.1,1.3,86,0.13,,,0.69,WUHU216HW,2013-05-11 00:33:00,
2013-05-10 20:38:00,63.7,59.9,29.93,NE,45,2.0,2.0,87,0.13,,,0.71,WUHU216HW,2013-05-11 00:38:00,
2013-05-10 20:43:00,63.4,59.5,29.93,NNE,23,0.0,2.0,87,0.12,,,0.72,WUHU216HW,2013-05-11 00:43:00,
2013-05-10 20:48:00,63.4,60.5,29.93,ENE,68,2.9,2.9,90,0.16,,,0.75,WUHU216HW,2013-05-11 00:48:00,
2013-05-10 20:53:00,63.2,59.6,29.92,NNE,23,0.2,2.9,88,0.16,,,0.77,WUHU216HW,2013-05-11 00:53:00,
2013-05-10 20:58:00,63.2,59.6,29.93,West,270,0.9,2.9,88,0.16,,,0.77,WUHU216HW,2013-05-11 00:58:00,
2013-05-10 21:03:00,63.4,60.5,29.94,SW,225,1.1,2.0,90,0.16,,,0.77,WUHU216HW,2013-05-11 01:03:00,
2013-05-10 21:08:00,63.4,60.5,29.95,WSW,248,2.2,2.2,90,0.16,,,0.77,WUHU216HW,2013-05-11 01:08:00,
2013-05-10 21:13:00,63.4,60.8,29.95,West,270,1.6,2.7,91,0.15,,,0.78,WUHU216HW,2013-05-11 01:13:00,
2013-05-10 21:18:00,63.4,60.5,29.95,West,270,1.8,4.0,90,0.14,,,0.78,WUHU216HW,2013-05-11 01:18:00,
2013-05-10 21:23:00,63.4,60.5,29.95,West,270,3.1,4.0,90,0.13,,,0.78,WUHU216HW,2013-05-11 01:23:00,
2013-05-10 21:28:00,63.4,60.8,29.95,WNW,293,3.4,3.8,91,0.10,,,0.79,WUHU216HW,2013-05-11 01:28:00,
2013-05-10 21:33:00,63.4,60.8,29.95,West,270,2.5,3.8,91,0.09,,,0.79,WUHU216HW,2013-05-11 01:33:00,
2013-05-10 21:38:00,63.4,60.8,29.95,WSW,248,3.4,3.4,91,0.08,,,0.80,WUHU216HW,2013-05-11 01:38:00,
2013-05-10 21:43:00,63.5,60.7,29.96,West,270,3.1,6.5,90,0.11,,,0.83,WUHU216HW,2013-05-11 01:43:00,
2013-05-10 21:48:00,63.5,60.9,29.96,West,270,4.9,6.5,91,0.08,,,0.85,WUHU216HW,2013-05-11 01:48:00,
2013-05-10 21:53:00,63.5,60.9,29.97,SSE,158,2.7,6.5,91,0.10,,,0.87,WUHU216HW,2013-05-11 01:53:00,
2013-05-10 21:58:00,63.4,60.8,29.96,SSW,203,2.2,4.9,91,0.11,,,0.88,WUHU216HW,2013-05-11 01:58:00,
2013-05-10 22:03:00,63.4,60.8,29.96,SW,225,1.3,4.7,91,0.13,,,0.90,WUHU216HW,2013-05-11 02:03:00,
2013-05-10 22:08:00,63.2,60.6,29.95,SSE,158,0.4,4.3,91,0.14,,,0.92,WUHU216HW,2013-05-11 02:08:00,
2013-05-10 22:13:00,63.0,60.4,29.95,SSW,203,0.4,3.1,91,0.14,,,0.92,WUHU216HW,2013-05-11 02:13:00,
2013-05-10 22:18:00,63.0,60.1,29.94,West,270,0.0,1.1,90,0.15,,,0.94,WUHU216HW,2013-05-11 02:18:00,
2013-05-10 22:23:00,63.0,60.1,29.94,SSE,158,0.2,0.9,90,0.15,,,0.94,WUHU216HW,2013-05-11 02:23:00,
2013-05-10 22:28:00,63.0,60.7,29.93,ESE,113,1.8,1.8,92,0.15,,,0.94,WUHU216HW,2013-05-11 02:28:00,
2013-05-10 22:33:00,63.0,60.7,29.92,SE,135,0.7,1.8,92,0.15,,,0.96,WUHU216HW,2013-05-11 02:33:00,
2013-05-10 22:38:00,62.8,60.5,29.91,ESE,113,1.1,1.8,92,0.14,,,0.96,WUHU216HW,2013-05-11 02:38:00,
2013-05-10 22:43:00,62.8,60.5,29.91,ESE,113,0.7,1.8,92,0.12,,,0.96,WUHU216HW,2013-05-11 02:43:00,
2013-05-10 22:48:00,62.6,60.0,29.91,East,90,0.0,1.8,91,0.09,,,0.96,WUHU216HW,2013-05-11 02:48:00,
2013-05-10 22:53:00,62.6,60.3,29.90,SE,135,0.9,1.1,92,0.07,,,0.96,WUHU216HW,2013-05-11 02:53:00,
2013-05-10 22:58:00,62.6,60.3,29.91,SE,135,0.7,1.3,92,0.06,,,0.96,WUHU216HW,2013-05-11 02:58:00,
2013-05-10 23:03:00,62.5,60.1,29.91,SE,135,0.0,1.3,92,0.05,,,0.96,WUHU216HW,2013-05-11 03:03:00,
2013-05-10 23:08:00,62.5,60.1,29.91,SE,135,0.7,1.1,92,0.04,,,0.96,WUHU216HW,2013-05-11 03:08:00,
2013-05-10 23:13:00,62.5,60.1,29.91,SSE,158,0.4,1.1,92,0.03,,,0.96,WUHU216HW,2013-05-11 03:13:00,
2013-05-10 23:18:00,62.3,59.7,29.91,SW,225,0.2,1.1,91,0.02,,,0.96,WUHU216HW,2013-05-11 03:18:00,
2013-05-10 23:23:00,62.3,59.9,29.91,SSW,203,1.1,2.0,92,0.02,,,0.96,WUHU216HW,2013-05-11 03:23:00,
2013-05-10 23:28:00,62.3,59.9,29.91,WSW,248,0.9,2.2,92,0.00,,,0.96,WUHU216HW,2013-05-11 03:28:00,
2013-05-10 23:33:00,62.3,59.9,29.91,SSE,158,3.1,4.5,92,0.00,,,0.96,WUHU216HW,2013-05-11 03:33:00,
2013-05-10 23:38:00,62.3,59.9,29.91,SW,225,3.6,5.1,92,0.00,,,0.96,WUHU216HW,2013-05-11 03:38:00,
2013-05-10 23:43:00,62.3,59.9,29.91,SSW,203,1.6,5.1,92,0.00,,,0.96,WUHU216HW,2013-05-11 03:43:00,
2013-05-10 23:48:00,62.3,59.9,29.91,SSW,203,2.5,5.1,92,0.00,,,0.96,WUHU216HW,2013-05-11 03:48:00,
2013-05-10 23:53:00,62.3,59.9,29.91,WSW,248,1.6,3.4,92,0.00,,,0.96,WUHU216HW,2013-05-11 03:53:00,
2013-05-10 23:58:00,62.3,59.9,29.90,SSE,158,0.4,2.9,92,0.00,,,0.96,WUHU216HW,2013-05-11 03:58:00,